Time;durP1;ratioP1;P1;durP2;ratioP2;P2;SDS_P1;SDS_P2;PMS_P1;PMS_P2;Temp;Humidity;BMP_temperature;BMP_pressure;BME280_temperature;BME280_humidity;BME280_pressure;Samples;Min_cycle;Max_cycle;Signal;HPM_P1;HPM_P2
2022/02/15 00:00:08;;;;;;;3.08;1.40;;;8.50;87.10;;;;;;6098370;23;95871;-70
2022/02/15 00:02:38;;;;;;;3.50;1.70;;;8.50;87.00;;;;;;6074405;23;94108;-70
2022/02/15 00:05:05;;;;;;;3.03;1.48;;;8.50;86.90;;;;;;6074328;23;92503;-69
2022/02/15 00:07:35;;;;;;;3.33;1.60;;;8.50;86.60;;;;;;6125335;23;92150;-70
2022/02/15 00:10:04;;;;;;;6.28;1.80;;;8.50;86.80;;;;;;6124934;23;92979;-69
2022/02/15 00:12:31;;;;;;;5.05;1.40;;;8.50;87.00;;;;;;6124636;23;93480;-70
2022/02/15 00:14:58;;;;;;;6.00;1.70;;;8.50;86.80;;;;;;6122862;23;105537;-69
2022/02/15 00:17:25;;;;;;;5.13;2.20;;;8.50;87.20;;;;;;6098132;23;92469;-70
2022/02/15 00:19:52;;;;;;;4.28;1.80;;;8.50;87.30;;;;;;6124922;23;93097;-70
2022/02/15 00:22:19;;;;;;;3.50;1.73;;;8.50;87.20;;;;;;6073917;23;95448;-70
2022/02/15 00:24:48;;;;;;;5.47;1.98;;;8.50;87.00;;;;;;6099607;23;92900;-70
2022/02/15 00:27:15;;;;;;;6.53;1.88;;;8.50;86.90;;;;;;6098869;23;92489;-70
2022/02/15 00:29:43;;;;;;;2.92;1.73;;;8.50;86.70;;;;;;6098719;23;93084;-69
2022/02/15 00:32:10;;;;;;;4.57;2.28;;;8.50;86.80;;;;;;6074662;23;92807;-70
2022/02/15 00:34:36;;;;;;;3.40;1.42;;;8.50;86.70;;;;;;6124548;23;92425;-69
2022/02/15 00:37:03;;;;;;;6.25;1.75;;;8.50;86.60;;;;;;6098750;23;92430;-69
2022/02/15 00:39:31;;;;;;;5.32;2.08;;;8.60;86.60;;;;;;6071928;23;98118;-69
2022/02/15 00:42:00;;;;;;;5.80;2.03;;;8.60;86.70;;;;;;6124452;23;95184;-70
2022/02/15 00:44:27;;;;;;;5.05;2.05;;;8.60;86.40;;;;;;6098569;23;92466;-69
2022/02/15 00:46:54;;;;;;;6.85;1.83;;;8.60;86.60;;;;;;6124797;23;92439;-69
2022/02/15 00:49:22;;;;;;;3.65;1.75;;;8.60;86.70;;;;;;6098606;23;93179;-70
2022/02/15 00:51:49;;;;;;;5.43;2.72;;;8.60;86.30;;;;;;6124234;23;92890;-69
2022/02/15 00:54:16;;;;;;;7.10;2.20;;;8.60;86.20;;;;;;6075098;23;92464;-70
2022/02/15 00:56:44;;;;;;;7.60;2.30;;;8.70;86.10;;;;;;6077159;22;91801;-69
2022/02/15 00:59:11;;;;;;;7.00;2.20;;;8.70;86.20;;;;;;6129222;22;95617;-69
2022/02/15 01:01:38;;;;;;;6.82;1.95;;;8.70;86.20;;;;;;6155652;22;92768;-70
2022/02/15 01:04:06;;;;;;;6.15;2.28;;;8.70;86.10;;;;;;6154788;22;94845;-69
2022/02/15 01:06:33;;;;;;;5.32;2.28;;;8.70;86.30;;;;;;6155378;22;98435;-69
2022/02/15 01:09:00;;;;;;;7.05;2.10;;;8.70;86.20;;;;;;6129019;22;96263;-69
2022/02/15 01:11:27;;;;;;;6.30;2.13;;;8.70;86.40;;;;;;6129193;22;95644;-69
2022/02/15 01:13:54;;;;;;;5.32;2.38;;;8.70;86.20;;;;;;6129272;22;92354;-69
2022/02/15 01:16:23;;;;;;;5.80;2.30;;;8.70;86.20;;;;;;6128951;22;92489;-70
2022/02/15 01:18:50;;;;;;;6.25;2.15;;;8.70;86.40;;;;;;6128845;22;95443;-69
2022/02/15 01:21:17;;;;;;;6.88;2.20;;;8.70;86.90;;;;;;6156324;22;92580;-70
2022/02/15 01:23:44;;;;;;;6.35;2.20;;;8.70;86.50;;;;;;6129386;22;92389;-70
2022/02/15 01:26:11;;;;;;;8.23;2.78;;;8.70;86.50;;;;;;6104477;22;92445;-69
2022/02/15 01:28:40;;;;;;;6.88;2.25;;;8.70;86.50;;;;;;6153960;22;95525;-70
2022/02/15 01:31:08;;;;;;;8.43;2.80;;;8.70;86.50;;;;;;6128809;22;97881;-70
2022/02/15 01:33:35;;;;;;;5.20;2.03;;;8.70;86.50;;;;;;6128615;22;92382;-70
2022/02/15 01:36:04;;;;;;;8.02;2.35;;;8.70;86.30;;;;;;6128863;22;92468;-69
2022/02/15 01:38:31;;;;;;;5.43;2.40;;;8.70;86.70;;;;;;6128855;22;95760;-69
2022/02/15 01:41:01;;;;;;;5.65;2.53;;;8.70;86.50;;;;;;6128526;22;95142;-69
2022/02/15 01:43:31;;;;;;;7.75;2.33;;;8.70;86.50;;;;;;6128946;22;92449;-70
2022/02/15 01:45:58;;;;;;;5.15;2.47;;;8.70;86.70;;;;;;6104851;22;91832;-70
2022/02/15 01:48:25;;;;;;;6.70;2.60;;;8.70;86.60;;;;;;6104163;22;95180;-69
2022/02/15 01:50:52;;;;;;;5.78;3.10;;;8.70;86.80;;;;;;6155427;22;92884;-69
2022/02/15 01:53:19;;;;;;;7.05;2.85;;;8.70;87.60;;;;;;6102858;22;94940;-70
2022/02/15 01:55:46;;;;;;;9.43;3.35;;;8.70;86.80;;;;;;6128658;22;92504;-70
2022/02/15 01:58:13;;;;;;;5.72;2.60;;;8.70;87.10;;;;;;6119427;22;95632;-69
2022/02/15 02:00:43;;;;;;;6.40;2.80;;;8.70;86.80;;;;;;6153994;22;95268;-69
2022/02/15 02:03:22;;;;;;;6.65;2.90;;;8.70;86.80;;;;;;6154368;22;92396;-69
2022/02/15 02:05:50;;;;;;;6.88;2.65;;;8.70;86.70;;;;;;6153408;22;92401;-69
2022/02/15 02:08:28;;;;;;;9.73;3.33;;;8.70;86.80;;;;;;6153997;22;95677;-69
2022/02/15 02:10:56;;;;;;;6.72;3.08;;;8.70;86.70;;;;;;6154329;22;95180;-70
2022/02/15 02:13:46;;;;;;;4.90;2.50;;;8.70;87.00;;;;;;6153974;22;92431;-69
2022/02/15 02:16:13;;;;;;;5.20;2.63;;;8.70;86.90;;;;;;6154042;22;92484;-70
2022/02/15 02:18:46;;;;;;;5.55;2.58;;;8.70;86.80;;;;;;6153880;22;94698;-70
2022/02/15 02:21:15;;;;;;;8.45;2.85;;;8.80;86.60;;;;;;6129175;22;97432;-69
2022/02/15 02:23:42;;;;;;;7.28;2.30;;;8.80;86.60;;;;;;6155645;22;92393;-69
2022/02/15 02:26:16;;;;;;;5.10;2.55;;;8.70;86.60;;;;;;6130662;22;92764;-69
2022/02/15 02:28:44;;;;;;;6.18;2.38;;;8.70;86.70;;;;;;6128725;22;95032;-70
2022/02/15 02:31:12;;;;;;;8.15;2.42;;;8.80;86.80;;;;;;6153749;22;95352;-69
2022/02/15 02:33:51;;;;;;;9.68;3.30;;;8.80;86.60;;;;;;6130817;22;92600;-69
2022/02/15 02:36:18;;;;;;;8.43;2.20;;;8.80;86.60;;;;;;6129491;22;91674;-69
2022/02/15 02:38:45;;;;;;;9.50;2.58;;;8.70;86.60;;;;;;6153543;22;95787;-69
2022/02/15 02:41:14;;;;;;;8.23;2.95;;;8.70;86.80;;;;;;6153582;22;95450;-70
2022/02/15 02:43:41;;;;;;;6.53;2.85;;;8.70;86.70;;;;;;6152504;22;94937;-70
2022/02/15 02:46:08;;;;;;;10.15;3.45;;;8.70;87.00;;;;;;6153975;22;92402;-69
2022/02/15 02:48:36;;;;;;;6.93;3.30;;;8.70;86.90;;;;;;6128969;22;95460;-70
2022/02/15 02:51:03;;;;;;;8.30;2.95;;;8.70;86.90;;;;;;6153352;22;95426;-69
2022/02/15 02:53:30;;;;;;;9.75;3.20;;;8.70;87.10;;;;;;6153473;22;97664;-69
2022/02/15 02:55:57;;;;;;;6.97;3.35;;;8.80;87.00;;;;;;6153648;22;92435;-70
2022/02/15 02:58:24;;;;;;;6.65;3.28;;;8.70;87.20;;;;;;6128694;22;95456;-69
2022/02/15 03:00:51;;;;;;;10.45;3.70;;;8.80;87.20;;;;;;6153814;22;95246;-69
2022/02/15 03:03:34;;;;;;;8.32;3.72;;;8.80;87.00;;;;;;6154030;22;92382;-69
2022/02/15 03:06:06;;;;;;;9.18;3.40;;;8.80;87.30;;;;;;6153585;22;92440;-69
2022/02/15 03:08:34;;;;;;;6.97;3.50;;;8.80;87.50;;;;;;6151934;22;98425;-70
2022/02/15 03:11:01;;;;;;;11.02;3.30;;;8.70;87.20;;;;;;6127749;22;97665;-69
2022/02/15 03:13:41;;;;;;;8.50;3.85;;;8.70;87.40;;;;;;6153789;22;92914;-70
2022/02/15 03:16:17;;;;;;;7.57;3.75;;;8.70;87.40;;;;;;6153062;22;92513;-69
2022/02/15 03:18:44;;;;;;;10.88;4.20;;;8.70;87.30;;;;;;6153541;22;95718;-69
2022/02/15 03:21:12;;;;;;;9.80;3.88;;;8.70;87.40;;;;;;6153390;22;95368;-70
2022/02/15 03:23:39;;;;;;;8.88;4.00;;;8.70;87.30;;;;;;6129025;22;92433;-69
2022/02/15 03:26:09;;;;;;;8.45;3.88;;;8.70;87.40;;;;;;6129456;22;91788;-70
2022/02/15 03:28:36;;;;;;;7.82;3.80;;;8.70;87.40;;;;;;6153523;22;95932;-69
2022/02/15 03:31:04;;;;;;;7.32;3.35;;;8.70;87.60;;;;;;6128486;22;95330;-69
2022/02/15 03:33:35;;;;;;;11.00;3.70;;;8.70;87.90;;;;;;6152607;22;94826;-69
2022/02/15 03:36:04;;;;;;;11.55;4.18;;;8.70;87.90;;;;;;6153612;22;92873;-70
2022/02/15 03:38:34;;;;;;;9.07;4.55;;;8.70;87.80;;;;;;6153648;22;95434;-70
2022/02/15 03:44:10;;;;;;;9.00;4.00;;;8.70;87.90;;;;;;6153366;22;92764;-69
2022/02/15 03:46:38;;;;;;;8.07;3.85;;;8.70;88.10;;;;;;6128697;22;92545;-70
2022/02/15 03:49:11;;;;;;;5.70;3.60;;;8.70;88.30;;;;;;6128271;22;95753;-70
2022/02/15 03:51:40;;;;;;;8.88;3.80;;;8.70;88.10;;;;;;6153600;22;94783;-69
2022/02/15 03:54:08;;;;;;;12.63;4.38;;;8.60;88.20;;;;;;6128576;22;92936;-70
2022/02/15 03:56:35;;;;;;;9.00;4.03;;;8.60;88.30;;;;;;6153509;22;92484;-70
2022/02/15 03:59:04;;;;;;;6.43;3.25;;;8.70;88.40;;;;;;6101688;22;97902;-70
2022/02/15 04:01:34;;;;;;;7.65;3.63;;;8.70;88.10;;;;;;6128084;22;97515;-70
2022/02/15 04:04:02;;;;;;;14.32;4.30;;;8.70;88.10;;;;;;6128105;22;92878;-69
2022/02/15 04:06:29;;;;;;;6.30;3.15;;;8.70;88.00;;;;;;6127810;22;92443;-69
2022/02/15 04:08:57;;;;;;;8.68;3.40;;;8.70;88.00;;;;;;6127704;22;95657;-70
2022/02/15 04:11:24;;;;;;;10.48;3.53;;;8.70;87.80;;;;;;6128087;22;95244;-69
2022/02/15 04:13:52;;;;;;;7.97;3.42;;;8.70;87.80;;;;;;6128192;22;92447;-69
2022/02/15 04:16:20;;;;;;;9.27;4.22;;;8.70;87.70;;;;;;6128527;22;91719;-70
2022/02/15 04:18:48;;;;;;;6.82;3.70;;;8.70;87.80;;;;;;6103389;22;95703;-70
2022/02/15 04:21:20;;;;;;;10.25;3.70;;;8.70;87.90;;;;;;6127675;22;95283;-70
2022/02/15 04:23:48;;;;;;;8.35;4.00;;;8.70;87.80;;;;;;6127124;22;95471;-69
2022/02/15 04:26:16;;;;;;;8.93;3.80;;;8.70;87.70;;;;;;6127756;22;92642;-69
2022/02/15 04:28:44;;;;;;;5.82;3.75;;;8.80;87.70;;;;;;6128607;22;95129;-70
2022/02/15 04:31:29;;;;;;;11.90;4.00;;;8.80;88.00;;;;;;6108325;22;95440;-69
2022/02/15 04:33:56;;;;;;;9.43;4.28;;;8.70;87.90;;;;;;6104515;22;92423;-70
2022/02/15 04:36:24;;;;;;;8.90;4.10;;;8.70;88.10;;;;;;6129068;22;92528;-70
2022/02/15 04:38:55;;;;;;;11.13;3.92;;;8.70;88.10;;;;;;6129356;22;95836;-70
2022/02/15 04:41:22;;;;;;;12.02;4.45;;;8.70;88.20;;;;;;6129568;22;94896;-69
2022/02/15 04:43:52;;;;;;;10.13;3.83;;;8.70;88.20;;;;;;6129227;22;92518;-70
2022/02/15 04:46:25;;;;;;;6.40;4.10;;;8.70;88.40;;;;;;6106218;22;92476;-69
2022/02/15 04:48:54;;;;;;;8.48;3.55;;;8.70;88.60;;;;;;6103156;22;96826;-70
2022/02/15 04:51:21;;;;;;;9.73;3.78;;;8.70;88.60;;;;;;6104415;22;97586;-70
2022/02/15 04:53:51;;;;;;;7.90;3.95;;;8.70;88.40;;;;;;6105696;22;92447;-69
2022/02/15 04:56:19;;;;;;;5.65;3.60;;;8.70;88.40;;;;;;6128843;22;92623;-70
2022/02/15 04:58:46;;;;;;;10.23;3.58;;;8.70;88.30;;;;;;6126227;22;95188;-69
2022/02/15 05:01:14;;;;;;;8.65;4.35;;;8.70;88.20;;;;;;6154013;22;95270;-70
2022/02/15 05:04:04;;;;;;;10.57;5.65;;;8.70;88.40;;;;;;6155519;22;92330;-69
2022/02/15 05:06:34;;;;;;;11.32;6.40;;;8.70;88.40;;;;;;6154985;22;91716;-69
2022/02/15 05:09:04;;;;;;;11.95;4.90;;;8.60;88.50;;;;;;6129926;22;95592;-70
2022/02/15 05:11:33;;;;;;;11.73;5.15;;;8.70;88.70;;;;;;6129469;22;93024;-70
2022/02/15 05:14:02;;;;;;;18.25;11.20;;;8.70;88.40;;;;;;6152648;22;94871;-70
2022/02/15 05:16:36;;;;;;;15.07;6.00;;;8.70;88.30;;;;;;6153495;22;92450;-70
2022/02/15 05:19:12;;;;;;;12.43;5.40;;;8.70;88.40;;;;;;6130995;22;95865;-69
2022/02/15 05:21:40;;;;;;;10.70;5.07;;;8.70;88.40;;;;;;6153899;22;94779;-69
2022/02/15 05:24:07;;;;;;;12.02;4.97;;;8.60;88.20;;;;;;6153905;22;92430;-69
2022/02/15 05:26:55;;;;;;;10.65;5.45;;;8.70;88.40;;;;;;6133771;22;92414;-69
2022/02/15 05:29:38;;;;;;;10.90;5.30;;;8.60;88.50;;;;;;6132686;22;95802;-70
2022/02/15 05:32:23;;;;;;;12.90;5.18;;;8.50;88.50;;;;;;6133336;22;95446;-69
2022/02/15 05:34:52;;;;;;;14.65;5.78;;;8.40;88.80;;;;;;6129662;22;92480;-69
2022/02/15 05:37:19;;;;;;;10.32;6.18;;;8.30;88.90;;;;;;6153786;22;92438;-69
2022/02/15 05:39:49;;;;;;;12.82;5.97;;;8.20;89.10;;;;;;6151613;22;97750;-70
2022/02/15 05:42:33;;;;;;;14.98;6.55;;;8.20;89.40;;;;;;6132208;22;97571;-69
2022/02/15 05:45:03;;;;;;;14.27;6.78;;;8.20;89.70;;;;;;6154109;22;92513;-69
2022/02/15 05:47:30;;;;;;;12.63;6.75;;;8.20;89.90;;;;;;6154182;22;92423;-69
2022/02/15 05:52:44;;;;;;;11.10;6.80;;;8.20;89.90;;;;;;6133293;22;95370;-69
2022/02/15 05:55:16;;;;;;;12.40;7.50;;;8.20;89.80;;;;;;6154115;22;93086;-69
2022/02/15 05:57:43;;;;;;;15.07;8.25;;;8.30;89.90;;;;;;6129389;22;91811;-69
2022/02/15 06:00:15;;;;;;;11.20;7.57;;;8.30;89.90;;;;;;6153467;22;94197;-69
2022/02/15 06:02:47;;;;;;;11.73;7.95;;;8.30;89.80;;;;;;6153786;22;94860;-69
2022/02/15 06:05:16;;;;;;;13.50;7.63;;;8.30;89.80;;;;;;6152544;22;95223;-69
2022/02/15 06:07:52;;;;;;;16.75;8.57;;;8.30;89.60;;;;;;6155932;22;92403;-69
2022/02/15 06:10:27;;;;;;;16.40;8.05;;;8.40;89.70;;;;;;6130183;22;94894;-70
2022/02/15 06:12:57;;;;;;;16.85;9.55;;;8.40;89.60;;;;;;6153750;22;94983;-69
2022/02/15 06:15:27;;;;;;;12.57;8.20;;;8.40;89.70;;;;;;6153676;22;92753;-69
2022/02/15 06:18:03;;;;;;;12.70;8.40;;;8.40;89.60;;;;;;6154501;22;92978;-69
2022/02/15 06:20:35;;;;;;;14.20;8.93;;;8.40;89.50;;;;;;6153637;22;94323;-69
2022/02/15 06:23:03;;;;;;;14.23;8.25;;;8.40;89.50;;;;;;6154085;22;95121;-69
2022/02/15 06:25:30;;;;;;;17.33;8.82;;;8.40;89.50;;;;;;6128856;22;92954;-70
2022/02/15 06:27:58;;;;;;;12.63;7.85;;;8.50;89.30;;;;;;6155278;22;98611;-70
2022/02/15 06:30:43;;;;;;;18.08;8.90;;;8.40;89.20;;;;;;6152289;22;98112;-69
2022/02/15 06:33:21;;;;;;;17.13;10.18;;;8.40;89.10;;;;;;6153544;22;97794;-69
2022/02/15 06:35:50;;;;;;;15.57;8.77;;;8.40;89.10;;;;;;6153125;22;92506;-70
2022/02/15 06:38:20;;;;;;;15.95;9.18;;;8.40;89.00;;;;;;6129924;22;92448;-70
2022/02/15 06:41:10;;;;;;;17.33;8.88;;;8.40;89.10;;;;;;6153629;22;95448;-70
2022/02/15 06:43:48;;;;;;;15.90;9.25;;;8.40;89.00;;;;;;6153349;22;94708;-70
2022/02/15 06:46:17;;;;;;;14.25;8.40;;;8.40;89.00;;;;;;6153218;22;92382;-69
2022/02/15 06:48:44;;;;;;;16.65;9.10;;;8.40;89.30;;;;;;6154334;22;91767;-70
2022/02/15 06:51:16;;;;;;;18.23;9.82;;;8.40;89.20;;;;;;6153106;22;95011;-70
2022/02/15 06:53:58;;;;;;;16.17;9.20;;;8.40;89.10;;;;;;6153686;22;94803;-70
2022/02/15 06:56:41;;;;;;;15.30;9.10;;;8.40;89.20;;;;;;6130387;22;94889;-70
2022/02/15 06:59:10;;;;;;;15.35;9.60;;;8.40;89.00;;;;;;6152455;22;92448;-70
2022/02/15 07:01:40;;;;;;;14.75;9.00;;;8.40;89.10;;;;;;6153264;22;95606;-70
2022/02/15 07:04:11;;;;;;;21.80;10.00;;;8.40;89.10;;;;;;6153878;22;95292;-70
2022/02/15 07:06:39;;;;;;;15.98;8.98;;;8.50;89.20;;;;;;6152835;22;92509;-70
2022/02/15 07:09:07;;;;;;;19.42;10.75;;;8.50;89.30;;;;;;6153713;22;92428;-70
2022/02/15 07:11:51;;;;;;;14.85;10.27;;;8.50;89.10;;;;;;6153051;22;95765;-70
2022/02/15 07:14:21;;;;;;;19.02;10.20;;;8.50;89.10;;;;;;6152761;22;95706;-70
2022/02/15 07:16:48;;;;;;;21.55;12.00;;;8.50;89.10;;;;;;6127882;22;92508;-70
2022/02/15 07:19:15;;;;;;;17.20;11.65;;;8.60;89.10;;;;;;6103791;22;92494;-70
2022/02/15 07:22:01;;;;;;;18.85;11.15;;;8.60;88.90;;;;;;6153107;22;95028;-70
2022/02/15 07:24:51;;;;;;;20.40;11.43;;;8.60;88.70;;;;;;6152541;22;96441;-70
2022/02/15 07:27:41;;;;;;;19.15;10.38;;;8.70;88.70;;;;;;6145832;22;92400;-70
2022/02/15 07:30:12;;;;;;;23.35;10.95;;;8.70;88.50;;;;;;6153130;22;92528;-70
2022/02/15 07:32:57;;;;;;;17.38;10.32;;;8.70;88.40;;;;;;6153373;22;92656;-70
2022/02/15 07:35:25;;;;;;;23.25;11.82;;;8.70;88.40;;;;;;6152276;22;95504;-70
2022/02/15 07:37:52;;;;;;;20.23;11.68;;;8.70;88.40;;;;;;6154658;22;92359;-70
2022/02/15 07:40:23;;;;;;;23.08;11.55;;;8.70;88.20;;;;;;6154959;22;91672;-70
2022/02/15 07:42:51;;;;;;;19.55;10.98;;;8.80;88.20;;;;;;6152455;22;95724;-70
2022/02/15 07:45:20;;;;;;;19.75;12.10;;;8.80;88.00;;;;;;6128090;22;95611;-70
2022/02/15 07:47:49;;;;;;;25.88;13.45;;;8.80;88.10;;;;;;6151405;22;94727;-70
2022/02/15 07:50:18;;;;;;;22.13;12.82;;;8.90;88.10;;;;;;6153101;22;92463;-70
2022/02/15 07:52:48;;;;;;;19.42;12.70;;;8.90;87.90;;;;;;6128258;22;96048;-70
2022/02/15 07:55:15;;;;;;;20.65;12.82;;;8.90;87.90;;;;;;6154221;22;93132;-70
2022/02/15 07:57:41;;;;;;;23.45;13.70;;;9.00;87.60;;;;;;6141693;22;92567;-75
2022/02/15 08:00:09;;;;;;;21.88;13.18;;;9.00;87.60;;;;;;6098140;23;93594;-76
2022/02/15 08:02:39;;;;;;;22.83;13.07;;;9.00;87.50;;;;;;6123535;23;92815;-70
2022/02/15 08:05:06;;;;;;;29.35;14.80;;;9.00;87.50;;;;;;6098710;23;92932;-70
2022/02/15 08:07:37;;;;;;;26.45;14.45;;;9.10;87.50;;;;;;6097341;23;92330;-70
2022/02/15 08:10:05;;;;;;;22.88;13.77;;;9.20;87.40;;;;;;6124443;23;93284;-70
2022/02/15 08:12:35;;;;;;;29.20;16.83;;;9.20;87.40;;;;;;6122249;23;95310;-70
2022/02/15 08:15:03;;;;;;;24.15;15.02;;;9.20;87.10;;;;;;6097528;23;97865;-70
2022/02/15 08:17:30;;;;;;;29.25;16.50;;;9.20;87.10;;;;;;6097969;23;92392;-70
2022/02/15 08:19:57;;;;;;;26.02;15.55;;;9.20;87.10;;;;;;6124233;23;92425;-76
2022/02/15 08:22:24;;;;;;;22.90;14.75;;;9.30;87.00;;;;;;6097366;23;95749;-76
2022/02/15 08:24:51;;;;;;;24.52;15.68;;;9.30;87.20;;;;;;6073221;23;94037;-76
2022/02/15 08:27:18;;;;;;;22.50;15.52;;;9.30;87.10;;;;;;6097789;23;92708;-76
2022/02/15 08:29:45;;;;;;;27.15;15.43;;;9.30;86.90;;;;;;6097832;23;91825;-76
2022/02/15 08:32:15;;;;;;;21.10;15.25;;;9.40;86.80;;;;;;6098363;23;92942;-76
2022/02/15 08:34:42;;;;;;;23.50;16.13;;;9.40;86.80;;;;;;6097221;23;95542;-76
2022/02/15 08:37:09;;;;;;;25.83;15.43;;;9.40;86.70;;;;;;6070960;23;107826;-77
2022/02/15 08:39:36;;;;;;;22.48;14.93;;;9.50;86.70;;;;;;6072834;23;92435;-76
2022/02/15 08:42:04;;;;;;;25.17;15.32;;;9.60;86.70;;;;;;6123905;23;92988;-76
2022/02/15 08:44:35;;;;;;;26.17;16.42;;;9.70;86.40;;;;;;6123651;23;93009;-76
2022/02/15 08:47:06;;;;;;;24.90;16.25;;;9.70;86.30;;;;;;6097967;23;92493;-76
2022/02/15 08:49:35;;;;;;;26.20;15.73;;;9.70;85.90;;;;;;6098796;23;92465;-76
2022/02/15 08:52:03;;;;;;;27.75;15.48;;;9.80;85.90;;;;;;6097138;23;95671;-76
2022/02/15 08:54:31;;;;;;;21.20;13.43;;;9.80;85.80;;;;;;6123888;23;92967;-76
2022/02/15 08:56:58;;;;;;;25.88;15.98;;;9.90;85.70;;;;;;6097369;23;92314;-76
2022/02/15 08:59:25;;;;;;;25.75;14.77;;;9.90;85.60;;;;;;6152860;22;92449;-76
2022/02/15 09:01:53;;;;;;;23.75;15.13;;;9.90;85.80;;;;;;6151870;22;95518;-76
2022/02/15 09:04:21;;;;;;;22.33;13.30;;;9.90;85.90;;;;;;6153596;22;95411;-76
2022/02/15 09:06:47;;;;;;;22.17;15.15;;;10.00;85.70;;;;;;6126887;22;92481;-76
2022/02/15 09:09:15;;;;;;;23.40;15.43;;;10.00;85.60;;;;;;6126581;22;92473;-76
2022/02/15 09:11:43;;;;;;;21.13;15.05;;;10.10;85.30;;;;;;6127099;22;93148;-76
2022/02/15 09:14:11;;;;;;;23.88;15.85;;;10.20;85.20;;;;;;6153550;22;93006;-77
2022/02/15 09:16:38;;;;;;;23.15;14.65;;;10.30;84.90;;;;;;6154933;22;92929;-76
2022/02/15 09:19:05;;;;;;;21.83;14.40;;;10.30;84.40;;;;;;6129209;22;91670;-76
2022/02/15 09:21:34;;;;;;;24.08;15.07;;;10.50;84.20;;;;;;6128679;22;92906;-76
2022/02/15 09:24:02;;;;;;;23.25;14.60;;;10.50;84.10;;;;;;6155117;22;93586;-76
2022/02/15 09:26:29;;;;;;;20.90;13.38;;;10.60;83.80;;;;;;6153871;22;94808;-76
2022/02/15 09:28:57;;;;;;;19.13;13.43;;;10.60;83.30;;;;;;6154926;22;92398;-76
2022/02/15 09:31:24;;;;;;;23.83;13.80;;;10.70;83.20;;;;;;6154494;22;105776;-76
2022/02/15 09:33:52;;;;;;;17.67;12.82;;;10.70;83.10;;;;;;6154791;22;92940;-76
2022/02/15 09:36:23;;;;;;;22.17;13.15;;;10.80;82.90;;;;;;6129525;22;92477;-77
2022/02/15 09:38:52;;;;;;;18.85;12.93;;;10.90;82.70;;;;;;6127602;22;92449;-76
2022/02/15 09:41:20;;;;;;;17.70;11.38;;;10.90;82.20;;;;;;6127260;22;95652;-76
2022/02/15 09:43:47;;;;;;;17.25;11.65;;;10.90;81.90;;;;;;6155067;22;93052;-76
2022/02/15 09:46:15;;;;;;;16.58;11.50;;;10.90;82.20;;;;;;6128171;22;92426;-76
2022/02/15 09:48:44;;;;;;;15.88;10.82;;;11.00;82.00;;;;;;6128261;22;92460;-76
2022/02/15 09:51:13;;;;;;;17.77;10.82;;;11.10;81.60;;;;;;6126780;22;95632;-76
2022/02/15 09:53:40;;;;;;;17.63;10.38;;;11.20;80.80;;;;;;6127090;22;97168;-76
2022/02/15 09:56:09;;;;;;;18.40;10.20;;;11.30;80.50;;;;;;6154951;22;92835;-76
2022/02/15 09:58:36;;;;;;;11.90;8.55;;;11.50;79.90;;;;;;6154624;22;92927;-76
2022/02/15 10:01:04;;;;;;;16.77;10.07;;;11.70;78.80;;;;;;6153543;22;95842;-76
2022/02/15 10:03:32;;;;;;;12.93;8.25;;;11.80;78.30;;;;;;6128002;22;95596;-76
2022/02/15 10:06:02;;;;;;;13.43;8.57;;;11.90;77.30;;;;;;6155423;22;92358;-76
2022/02/15 10:08:31;;;;;;;15.73;8.05;;;12.00;77.00;;;;;;6156324;22;91989;-76
2022/02/15 10:11:13;;;;;;;13.82;8.50;;;12.10;76.10;;;;;;6128154;22;109197;-76
2022/02/15 10:13:45;;;;;;;15.63;8.85;;;12.20;75.70;;;;;;6155771;22;92964;-77
2022/02/15 10:16:13;;;;;;;11.10;6.88;;;12.20;75.70;;;;;;6154248;22;95302;-76
2022/02/15 10:18:41;;;;;;;12.23;8.55;;;12.10;75.10;;;;;;6128551;22;92519;-77
2022/02/15 10:21:16;;;;;;;11.18;7.07;;;12.20;74.90;;;;;;6155537;22;93131;-76
2022/02/15 10:23:49;;;;;;;13.52;9.02;;;12.30;75.00;;;;;;6155370;22;93192;-76
2022/02/15 10:26:15;;;;;;;11.55;7.80;;;12.30;74.60;;;;;;6104212;22;92484;-76
2022/02/15 10:28:43;;;;;;;10.82;7.43;;;12.40;74.50;;;;;;6128577;22;93298;-77
2022/02/15 10:31:14;;;;;;;11.48;8.10;;;12.50;74.80;;;;;;6129611;22;93064;-77
2022/02/15 10:33:44;;;;;;;16.77;8.88;;;12.50;73.90;;;;;;6129486;22;93116;-76
2022/02/15 10:36:13;;;;;;;11.18;7.22;;;12.70;74.00;;;;;;6155558;22;92381;-77
2022/02/15 10:38:42;;;;;;;13.45;7.45;;;12.80;73.40;;;;;;6129141;22;92445;-76
2022/02/15 10:41:11;;;;;;;8.50;6.40;;;12.90;72.80;;;;;;6153778;22;96205;-77
2022/02/15 10:43:52;;;;;;;11.40;6.20;;;12.90;71.60;;;;;;6155282;22;95370;-77
2022/02/15 10:46:22;;;;;;;9.73;6.40;;;13.00;71.60;;;;;;6128879;22;92372;-77
2022/02/15 10:48:50;;;;;;;8.90;5.32;;;13.00;71.50;;;;;;6103689;22;92461;-76
2022/02/15 10:51:17;;;;;;;9.57;5.47;;;13.00;71.50;;;;;;6155247;22;92769;-76
2022/02/15 10:53:56;;;;;;;11.30;5.55;;;13.10;71.20;;;;;;6130763;22;93054;-76
2022/02/15 10:56:31;;;;;;;8.82;4.97;;;13.00;70.70;;;;;;6128078;22;92485;-77
2022/02/15 10:59:05;;;;;;;7.50;4.30;;;13.00;70.10;;;;;;6155092;22;91700;-77
2022/02/15 11:01:33;;;;;;;7.90;4.50;;;12.90;70.10;;;;;;6155390;22;92417;-77
2022/02/15 11:04:04;;;;;;;9.15;5.03;;;12.90;69.70;;;;;;6103355;22;104706;-77
2022/02/15 11:06:32;;;;;;;10.18;4.95;;;12.90;69.30;;;;;;6127268;22;94767;-77
2022/02/15 11:09:05;;;;;;;9.82;4.47;;;12.80;69.60;;;;;;6103433;22;92415;-76
2022/02/15 11:11:58;;;;;;;10.10;4.50;;;12.80;69.30;;;;;;6155351;22;92963;-76
2022/02/15 11:14:25;;;;;;;10.90;4.88;;;12.80;69.70;;;;;;6128859;22;97328;-76
2022/02/15 11:16:52;;;;;;;12.38;5.10;;;12.80;70.20;;;;;;6128145;22;92447;-76
2022/02/15 11:19:20;;;;;;;9.90;4.60;;;12.80;70.00;;;;;;6129169;22;92482;-77
2022/02/15 11:21:54;;;;;;;5.88;3.83;;;12.90;69.90;;;;;;6155282;22;93069;-77
2022/02/15 11:24:21;;;;;;;8.43;3.47;;;12.80;69.40;;;;;;6104225;22;98253;-77
2022/02/15 11:26:48;;;;;;;5.75;3.63;;;12.70;68.90;;;;;;6128619;22;92446;-76
2022/02/15 11:29:24;;;;;;;5.15;3.08;;;12.50;69.30;;;;;;6103914;22;92429;-76
2022/02/15 11:31:53;;;;;;;4.70;3.00;;;12.50;69.70;;;;;;6153587;22;95633;-77
2022/02/15 11:34:31;;;;;;;5.30;2.78;;;12.40;69.20;;;;;;6103508;22;96414;-76
2022/02/15 11:37:00;;;;;;;6.20;3.00;;;12.40;68.80;;;;;;6154612;22;92377;-77
2022/02/15 11:39:38;;;;;;;7.22;3.08;;;12.30;69.20;;;;;;6106467;22;92921;-77
2022/02/15 11:42:16;;;;;;;7.45;3.20;;;12.30;69.00;;;;;;6128446;22;93068;-76
2022/02/15 11:44:44;;;;;;;6.72;2.78;;;12.30;69.10;;;;;;6128284;22;95586;-76
2022/02/15 11:47:29;;;;;;;7.70;3.58;;;12.20;69.00;;;;;;6154891;22;92376;-77
2022/02/15 11:50:01;;;;;;;10.27;3.60;;;12.10;68.90;;;;;;6128812;22;92081;-76
2022/02/15 11:52:29;;;;;;;7.47;2.55;;;12.00;69.50;;;;;;6128547;22;93301;-76
2022/02/15 11:55:09;;;;;;;7.22;2.80;;;11.90;69.50;;;;;;6129448;22;92741;-76
2022/02/15 11:57:36;;;;;;;6.20;2.65;;;12.00;69.10;;;;;;6126771;22;94908;-76
2022/02/15 12:00:08;;;;;;;6.65;2.67;;;12.00;69.10;;;;;;6154857;22;92330;-76
2022/02/15 12:02:58;;;;;;;4.50;2.35;;;12.20;68.40;;;;;;6154983;22;92725;-77
2022/02/15 12:05:27;;;;;;;7.70;2.80;;;12.20;68.30;;;;;;6155043;22;92939;-76
2022/02/15 12:07:58;;;;;;;4.50;2.50;;;12.30;68.10;;;;;;6154853;22;92443;-76
2022/02/15 12:10:34;;;;;;;6.65;2.22;;;12.30;68.00;;;;;;6104238;22;92664;-76
2022/02/15 12:13:01;;;;;;;4.57;2.40;;;12.30;67.60;;;;;;6127530;22;95668;-76
2022/02/15 12:15:34;;;;;;;7.32;2.28;;;12.30;67.40;;;;;;6128846;22;92879;-76
2022/02/15 12:18:03;;;;;;;7.85;2.70;;;12.30;66.80;;;;;;6103597;22;92439;-76
2022/02/15 12:20:30;;;;;;;4.85;2.25;;;12.30;66.60;;;;;;6155056;22;92969;-76
2022/02/15 12:22:57;;;;;;;7.85;2.03;;;12.40;67.20;;;;;;6126459;22;95432;-76
2022/02/15 12:25:44;;;;;;;9.13;3.20;;;12.30;65.80;;;;;;6127809;22;97775;-76
2022/02/15 12:28:11;;;;;;;5.15;2.03;;;12.10;66.10;;;;;;6154761;22;92401;-76
2022/02/15 12:30:43;;;;;;;7.07;2.67;;;11.90;66.40;;;;;;6154990;22;92834;-76
2022/02/15 12:33:10;;;;;;;6.63;2.90;;;12.00;66.60;;;;;;6154409;22;92913;-76
2022/02/15 12:35:37;;;;;;;3.55;1.80;;;12.00;67.00;;;;;;6103125;22;100242;-76
2022/02/15 12:38:05;;;;;;;3.45;1.98;;;12.10;66.10;;;;;;6154497;22;92360;-77
2022/02/15 12:40:32;;;;;;;8.45;2.60;;;12.20;65.30;;;;;;6103717;22;91675;-76
2022/02/15 12:42:59;;;;;;;5.70;2.33;;;12.30;64.50;;;;;;6154511;22;92309;-70
2022/02/15 12:45:27;;;;;;;6.35;3.00;;;12.30;64.90;;;;;;6128127;22;92893;-70
2022/02/15 12:47:54;;;;;;;13.57;2.95;;;12.30;65.10;;;;;;6102707;22;95197;-69
2022/02/15 12:50:21;;;;;;;8.02;3.03;;;12.20;65.00;;;;;;6128628;22;92529;-70
2022/02/15 12:52:48;;;;;;;8.77;3.35;;;12.20;65.70;;;;;;6155864;22;92348;-70
2022/02/15 12:55:18;;;;;;;4.18;1.90;;;12.10;66.00;;;;;;6128766;22;94669;-70
2022/02/15 12:57:51;;;;;;;4.70;2.03;;;12.20;65.30;;;;;;6155713;22;92384;-70
2022/02/15 13:00:20;;;;;;;4.28;1.75;;;12.20;64.50;;;;;;6155835;22;92488;-70
2022/02/15 13:02:51;;;;;;;5.20;1.83;;;12.20;62.90;;;;;;6155718;22;93341;-70
2022/02/15 13:05:29;;;;;;;5.47;2.10;;;12.20;62.10;;;;;;6129652;22;92885;-70